sensor_id;sensor_type;location;lat;lon;timestamp;temperature;humidity
49503;DHT22;35409;48.776;9.204;2022-12-05T00:00:14;2.40;99.90
49503;DHT22;35409;48.776;9.204;2022-12-05T00:02:40;2.50;99.90
49503;DHT22;35409;48.776;9.204;2022-12-05T00:05:06;2.50;99.90
49503;DHT22;35409;48.776;9.204;2022-12-05T00:07:32;2.50;99.90
49503;DHT22;35409;48.776;9.204;2022-12-05T00:09:57;2.50;99.90
49503;DHT22;35409;48.776;9.204;2022-12-05T00:12:23;2.60;99.90
49503;DHT22;35409;48.776;9.204;2022-12-05T00:14:48;2.60;99.90
49503;DHT22;35409;48.776;9.204;2022-12-05T00:17:14;2.60;99.90
49503;DHT22;35409;48.776;9.204;2022-12-05T00:19:40;2.50;99.90
49503;DHT22;35409;48.776;9.204;2022-12-05T00:22:05;2.50;99.90
49503;DHT22;35409;48.776;9.204;2022-12-05T00:24:31;2.50;99.90
49503;DHT22;35409;48.776;9.204;2022-12-05T00:26:56;2.50;99.90
49503;DHT22;35409;48.776;9.204;2022-12-05T00:29:22;2.50;99.90
49503;DHT22;35409;48.776;9.204;2022-12-05T00:31:47;2.50;99.90
49503;DHT22;35409;48.776;9.204;2022-12-05T00:34:13;2.50;99.90
49503;DHT22;35409;48.776;9.204;2022-12-05T00:36:39;2.50;99.90
49503;DHT22;35409;48.776;9.204;2022-12-05T00:39:07;2.50;99.90
49503;DHT22;35409;48.776;9.204;2022-12-05T00:41:34;2.50;99.90
49503;DHT22;35409;48.776;9.204;2022-12-05T00:44:00;2.50;99.90
49503;DHT22;35409;48.776;9.204;2022-12-05T00:46:28;2.50;99.90
49503;DHT22;35409;48.776;9.204;2022-12-05T00:48:55;2.50;99.90
49503;DHT22;35409;48.776;9.204;2022-12-05T00:51:23;2.50;99.90
49503;DHT22;35409;48.776;9.204;2022-12-05T00:53:51;2.40;99.90
49503;DHT22;35409;48.776;9.204;2022-12-05T00:56:22;2.40;99.90
49503;DHT22;35409;48.776;9.204;2022-12-05T00:58:50;2.50;99.90
49503;DHT22;35409;48.776;9.204;2022-12-05T01:01:19;2.50;99.90
49503;DHT22;35409;48.776;9.204;2022-12-05T01:03:46;2.50;99.90
49503;DHT22;35409;48.776;9.204;2022-12-05T01:06:13;2.50;99.90
49503;DHT22;35409;48.776;9.204;2022-12-05T01:08:39;2.50;99.90
49503;DHT22;35409;48.776;9.204;2022-12-05T01:11:06;2.50;99.90
49503;DHT22;35409;48.776;9.204;2022-12-05T01:13:32;2.50;99.90
49503;DHT22;35409;48.776;9.204;2022-12-05T01:15:58;2.40;99.90
49503;DHT22;35409;48.776;9.204;2022-12-05T01:18:25;2.50;99.90
49503;DHT22;35409;48.776;9.204;2022-12-05T01:20:51;2.50;99.90
49503;DHT22;35409;48.776;9.204;2022-12-05T01:23:18;2.40;99.90
49503;DHT22;35409;48.776;9.204;2022-12-05T01:25:47;2.40;99.90
49503;DHT22;35409;48.776;9.204;2022-12-05T01:28:13;2.40;99.90
49503;DHT22;35409;48.776;9.204;2022-12-05T01:30:47;2.40;99.90
49503;DHT22;35409;48.776;9.204;2022-12-05T01:33:13;2.40;99.90
49503;DHT22;35409;48.776;9.204;2022-12-05T01:35:40;2.40;99.90
49503;DHT22;35409;48.776;9.204;2022-12-05T01:38:07;2.40;99.90
49503;DHT22;35409;48.776;9.204;2022-12-05T01:40:34;2.40;99.90
49503;DHT22;35409;48.776;9.204;2022-12-05T01:43:03;2.40;99.90
49503;DHT22;35409;48.776;9.204;2022-12-05T01:45:40;2.40;99.90
49503;DHT22;35409;48.776;9.204;2022-12-05T01:48:27;2.40;99.90
49503;DHT22;35409;48.776;9.204;2022-12-05T01:50:54;2.40;99.90
49503;DHT22;35409;48.776;9.204;2022-12-05T01:53:20;2.40;99.90
49503;DHT22;35409;48.776;9.204;2022-12-05T01:55:47;2.40;99.90
49503;DHT22;35409;48.776;9.204;2022-12-05T01:58:14;2.40;99.90
49503;DHT22;35409;48.776;9.204;2022-12-05T02:00:41;2.40;99.90
49503;DHT22;35409;48.776;9.204;2022-12-05T02:03:09;2.40;99.90
49503;DHT22;35409;48.776;9.204;2022-12-05T02:05:36;2.40;99.90
49503;DHT22;35409;48.776;9.204;2022-12-05T02:08:05;2.50;99.90
49503;DHT22;35409;48.776;9.204;2022-12-05T02:10:36;2.40;99.90
49503;DHT22;35409;48.776;9.204;2022-12-05T02:16:17;2.50;99.90
49503;DHT22;35409;48.776;9.204;2022-12-05T02:21:30;2.40;99.90
49503;DHT22;35409;48.776;9.204;2022-12-05T02:41:23;2.50;99.90
49503;DHT22;35409;48.776;9.204;2022-12-05T02:44:06;2.40;99.90
49503;DHT22;35409;48.776;9.204;2022-12-05T02:46:35;2.50;99.90
49503;DHT22;35409;48.776;9.204;2022-12-05T02:49:06;2.50;99.90
49503;DHT22;35409;48.776;9.204;2022-12-05T02:51:37;2.50;99.90
49503;DHT22;35409;48.776;9.204;2022-12-05T02:54:07;2.60;99.90
49503;DHT22;35409;48.776;9.204;2022-12-05T02:56:35;2.60;99.90
49503;DHT22;35409;48.776;9.204;2022-12-05T02:59:01;2.50;99.90
49503;DHT22;35409;48.776;9.204;2022-12-05T03:01:29;2.50;99.90
49503;DHT22;35409;48.776;9.204;2022-12-05T03:03:57;2.60;99.90
49503;DHT22;35409;48.776;9.204;2022-12-05T03:06:29;2.60;99.90
49503;DHT22;35409;48.776;9.204;2022-12-05T03:09:00;2.60;99.90
49503;DHT22;35409;48.776;9.204;2022-12-05T03:11:37;2.60;99.90
49503;DHT22;35409;48.776;9.204;2022-12-05T03:14:06;2.60;99.90
49503;DHT22;35409;48.776;9.204;2022-12-05T03:16:46;2.60;99.90
49503;DHT22;35409;48.776;9.204;2022-12-05T03:19:23;2.60;99.90
49503;DHT22;35409;48.776;9.204;2022-12-05T03:22:55;2.60;99.90
49503;DHT22;35409;48.776;9.204;2022-12-05T03:24:48;2.50;99.90
49503;DHT22;35409;48.776;9.204;2022-12-05T03:27:46;2.50;99.90
49503;DHT22;35409;48.776;9.204;2022-12-05T03:30:15;2.40;99.90
49503;DHT22;35409;48.776;9.204;2022-12-05T03:38:19;2.40;99.90
49503;DHT22;35409;48.776;9.204;2022-12-05T03:46:36;2.40;99.90
49503;DHT22;35409;48.776;9.204;2022-12-05T03:51:45;2.50;99.90
49503;DHT22;35409;48.776;9.204;2022-12-05T03:54:30;2.50;99.90
49503;DHT22;35409;48.776;9.204;2022-12-05T03:57:04;2.50;99.90
49503;DHT22;35409;48.776;9.204;2022-12-05T04:02:44;2.60;99.90
49503;DHT22;35409;48.776;9.204;2022-12-05T04:05:29;2.70;99.90
49503;DHT22;35409;48.776;9.204;2022-12-05T04:08:46;2.70;99.90
49503;DHT22;35409;48.776;9.204;2022-12-05T04:10:46;2.70;99.90
49503;DHT22;35409;48.776;9.204;2022-12-05T04:13:21;2.70;99.90
49503;DHT22;35409;48.776;9.204;2022-12-05T04:15:55;2.70;99.90
49503;DHT22;35409;48.776;9.204;2022-12-05T04:18:45;2.70;99.90
49503;DHT22;35409;48.776;9.204;2022-12-05T04:21:12;2.70;99.90
49503;DHT22;35409;48.776;9.204;2022-12-05T04:23:57;2.70;99.90
49503;DHT22;35409;48.776;9.204;2022-12-05T04:26:45;2.70;99.90
49503;DHT22;35409;48.776;9.204;2022-12-05T04:29:27;2.60;99.90
49503;DHT22;35409;48.776;9.204;2022-12-05T04:32:01;2.50;99.90
49503;DHT22;35409;48.776;9.204;2022-12-05T04:34:31;2.50;99.90
49503;DHT22;35409;48.776;9.204;2022-12-05T04:37:05;2.40;99.90
49503;DHT22;35409;48.776;9.204;2022-12-05T04:39:38;2.40;99.90
49503;DHT22;35409;48.776;9.204;2022-12-05T04:42:12;2.50;99.90
49503;DHT22;35409;48.776;9.204;2022-12-05T04:45:01;2.50;99.90
49503;DHT22;35409;48.776;9.204;2022-12-05T04:47:32;2.50;99.90
49503;DHT22;35409;48.776;9.204;2022-12-05T04:49:59;2.50;99.90
49503;DHT22;35409;48.776;9.204;2022-12-05T04:52:27;2.50;99.90
49503;DHT22;35409;48.776;9.204;2022-12-05T04:57:37;2.50;99.90
49503;DHT22;35409;48.776;9.204;2022-12-05T05:00:05;2.50;99.90
49503;DHT22;35409;48.776;9.204;2022-12-05T05:02:41;2.50;99.90
49503;DHT22;35409;48.776;9.204;2022-12-05T05:05:10;2.50;99.90
49503;DHT22;35409;48.776;9.204;2022-12-05T05:07:51;2.60;99.90
49503;DHT22;35409;48.776;9.204;2022-12-05T05:10:19;2.60;99.90
49503;DHT22;35409;48.776;9.204;2022-12-05T05:12:46;2.60;99.90
49503;DHT22;35409;48.776;9.204;2022-12-05T05:15:11;2.60;99.90
49503;DHT22;35409;48.776;9.204;2022-12-05T05:17:37;2.50;99.90
49503;DHT22;35409;48.776;9.204;2022-12-05T05:20:03;2.50;99.90
49503;DHT22;35409;48.776;9.204;2022-12-05T05:22:48;2.50;99.90
49503;DHT22;35409;48.776;9.204;2022-12-05T05:25:14;2.60;99.90
49503;DHT22;35409;48.776;9.204;2022-12-05T05:27:40;2.60;99.90
49503;DHT22;35409;48.776;9.204;2022-12-05T05:30:06;2.60;99.90
49503;DHT22;35409;48.776;9.204;2022-12-05T05:32:32;2.60;99.90
49503;DHT22;35409;48.776;9.204;2022-12-05T05:34:58;2.60;99.90
49503;DHT22;35409;48.776;9.204;2022-12-05T05:37:23;2.60;99.90
49503;DHT22;35409;48.776;9.204;2022-12-05T05:39:49;2.60;99.90
49503;DHT22;35409;48.776;9.204;2022-12-05T05:42:15;2.60;99.90
49503;DHT22;35409;48.776;9.204;2022-12-05T05:44:40;2.70;99.90
49503;DHT22;35409;48.776;9.204;2022-12-05T05:47:06;2.60;99.90
49503;DHT22;35409;48.776;9.204;2022-12-05T05:49:31;2.60;99.90
49503;DHT22;35409;48.776;9.204;2022-12-05T05:51:57;2.70;99.90
49503;DHT22;35409;48.776;9.204;2022-12-05T05:54:22;2.70;99.90
49503;DHT22;35409;48.776;9.204;2022-12-05T05:56:48;2.70;99.90
49503;DHT22;35409;48.776;9.204;2022-12-05T05:59:13;2.70;99.90
49503;DHT22;35409;48.776;9.204;2022-12-05T06:01:39;2.70;99.90
49503;DHT22;35409;48.776;9.204;2022-12-05T06:04:05;2.80;99.90
49503;DHT22;35409;48.776;9.204;2022-12-05T06:06:32;2.80;99.90
49503;DHT22;35409;48.776;9.204;2022-12-05T06:08:57;2.80;99.90
49503;DHT22;35409;48.776;9.204;2022-12-05T06:11:25;2.70;99.90
49503;DHT22;35409;48.776;9.204;2022-12-05T06:13:51;2.80;99.90
49503;DHT22;35409;48.776;9.204;2022-12-05T06:16:18;2.80;99.90
49503;DHT22;35409;48.776;9.204;2022-12-05T06:18:43;2.80;99.90
49503;DHT22;35409;48.776;9.204;2022-12-05T06:21:10;2.80;99.90
49503;DHT22;35409;48.776;9.204;2022-12-05T06:23:37;2.80;99.90
49503;DHT22;35409;48.776;9.204;2022-12-05T06:26:04;2.80;99.90
49503;DHT22;35409;48.776;9.204;2022-12-05T06:28:30;2.80;99.90
49503;DHT22;35409;48.776;9.204;2022-12-05T06:30:55;2.80;99.90
49503;DHT22;35409;48.776;9.204;2022-12-05T06:33:21;2.70;99.90
49503;DHT22;35409;48.776;9.204;2022-12-05T06:35:47;2.70;99.90
49503;DHT22;35409;48.776;9.204;2022-12-05T06:38:13;2.80;99.90
49503;DHT22;35409;48.776;9.204;2022-12-05T06:40:43;2.90;99.90
49503;DHT22;35409;48.776;9.204;2022-12-05T06:43:08;2.80;99.90
49503;DHT22;35409;48.776;9.204;2022-12-05T06:45:36;2.90;99.90
49503;DHT22;35409;48.776;9.204;2022-12-05T06:48:02;2.90;99.90
49503;DHT22;35409;48.776;9.204;2022-12-05T06:50:28;2.80;99.90
49503;DHT22;35409;48.776;9.204;2022-12-05T06:52:53;2.80;99.90
49503;DHT22;35409;48.776;9.204;2022-12-05T06:55:19;2.80;99.90
49503;DHT22;35409;48.776;9.204;2022-12-05T06:57:45;2.80;99.90
49503;DHT22;35409;48.776;9.204;2022-12-05T07:00:11;2.90;99.90
49503;DHT22;35409;48.776;9.204;2022-12-05T07:02:55;2.90;99.90
49503;DHT22;35409;48.776;9.204;2022-12-05T07:05:20;2.90;99.90
49503;DHT22;35409;48.776;9.204;2022-12-05T07:07:46;2.90;99.90
49503;DHT22;35409;48.776;9.204;2022-12-05T07:10:12;2.90;99.90
49503;DHT22;35409;48.776;9.204;2022-12-05T07:12:37;3.00;99.90
49503;DHT22;35409;48.776;9.204;2022-12-05T07:15:03;2.90;99.90
49503;DHT22;35409;48.776;9.204;2022-12-05T07:17:29;3.00;99.90
49503;DHT22;35409;48.776;9.204;2022-12-05T07:19:54;3.00;99.90
49503;DHT22;35409;48.776;9.204;2022-12-05T07:22:21;3.10;99.90
49503;DHT22;35409;48.776;9.204;2022-12-05T07:24:47;3.10;99.90
49503;DHT22;35409;48.776;9.204;2022-12-05T07:27:14;3.20;99.90
49503;DHT22;35409;48.776;9.204;2022-12-05T07:29:40;3.20;99.90
49503;DHT22;35409;48.776;9.204;2022-12-05T07:32:05;3.20;99.90
49503;DHT22;35409;48.776;9.204;2022-12-05T07:34:31;3.30;99.90
49503;DHT22;35409;48.776;9.204;2022-12-05T07:36:57;3.30;99.90
49503;DHT22;35409;48.776;9.204;2022-12-05T07:39:22;3.30;99.90
49503;DHT22;35409;48.776;9.204;2022-12-05T07:41:48;3.40;99.90
49503;DHT22;35409;48.776;9.204;2022-12-05T07:44:14;3.50;99.90
49503;DHT22;35409;48.776;9.204;2022-12-05T07:46:39;3.50;99.90
49503;DHT22;35409;48.776;9.204;2022-12-05T07:49:06;3.50;99.90
49503;DHT22;35409;48.776;9.204;2022-12-05T07:51:32;3.60;99.90
49503;DHT22;35409;48.776;9.204;2022-12-05T07:53:58;3.70;99.90
49503;DHT22;35409;48.776;9.204;2022-12-05T07:56:24;3.70;99.90
49503;DHT22;35409;48.776;9.204;2022-12-05T07:58:49;3.80;99.90
49503;DHT22;35409;48.776;9.204;2022-12-05T08:01:24;3.80;99.90
49503;DHT22;35409;48.776;9.204;2022-12-05T08:03:52;3.90;99.90
49503;DHT22;35409;48.776;9.204;2022-12-05T08:06:21;4.00;99.90
49503;DHT22;35409;48.776;9.204;2022-12-05T08:08:47;4.20;99.90
49503;DHT22;35409;48.776;9.204;2022-12-05T09:36:50;5.20;99.90
49503;DHT22;35409;48.776;9.204;2022-12-05T09:39:16;5.20;99.90
49503;DHT22;35409;48.776;9.204;2022-12-05T09:41:54;5.30;99.90
49503;DHT22;35409;48.776;9.204;2022-12-05T09:52:37;5.40;99.90
49503;DHT22;35409;48.776;9.204;2022-12-05T09:55:17;5.40;99.90
49503;DHT22;35409;48.776;9.204;2022-12-05T09:57:59;5.50;99.90
49503;DHT22;35409;48.776;9.204;2022-12-05T10:00:27;5.50;99.90
49503;DHT22;35409;48.776;9.204;2022-12-05T10:03:11;5.50;99.90
49503;DHT22;35409;48.776;9.204;2022-12-05T10:06:08;5.50;99.90
49503;DHT22;35409;48.776;9.204;2022-12-05T10:09:05;5.50;99.90
49503;DHT22;35409;48.776;9.204;2022-12-05T10:12:13;5.50;99.90
49503;DHT22;35409;48.776;9.204;2022-12-05T10:17:27;5.50;99.90
49503;DHT22;35409;48.776;9.204;2022-12-05T10:19:59;5.50;99.90
49503;DHT22;35409;48.776;9.204;2022-12-05T10:25:18;5.60;99.90
49503;DHT22;35409;48.776;9.204;2022-12-05T10:28:09;5.60;99.90
49503;DHT22;35409;48.776;9.204;2022-12-05T10:30:39;5.60;99.90
49503;DHT22;35409;48.776;9.204;2022-12-05T10:33:35;5.70;99.90
49503;DHT22;35409;48.776;9.204;2022-12-05T10:36:05;5.80;99.90
49503;DHT22;35409;48.776;9.204;2022-12-05T10:38:34;6.00;99.90
49503;DHT22;35409;48.776;9.204;2022-12-05T10:41:07;6.10;99.90
49503;DHT22;35409;48.776;9.204;2022-12-05T10:43:34;6.40;99.90
49503;DHT22;35409;48.776;9.204;2022-12-05T10:46:01;6.60;99.90
49503;DHT22;35409;48.776;9.204;2022-12-05T10:48:28;7.20;99.90
49503;DHT22;35409;48.776;9.204;2022-12-05T10:50:56;7.30;99.90
49503;DHT22;35409;48.776;9.204;2022-12-05T10:53:37;7.40;99.90
49503;DHT22;35409;48.776;9.204;2022-12-05T10:56:56;7.50;99.90
49503;DHT22;35409;48.776;9.204;2022-12-05T10:59:21;7.60;99.90
49503;DHT22;35409;48.776;9.204;2022-12-05T11:01:56;7.60;99.90
49503;DHT22;35409;48.776;9.204;2022-12-05T11:04:30;7.70;99.90
49503;DHT22;35409;48.776;9.204;2022-12-05T11:06:58;7.70;99.90
49503;DHT22;35409;48.776;9.204;2022-12-05T11:09:27;7.70;99.90
49503;DHT22;35409;48.776;9.204;2022-12-05T11:14:33;7.70;99.90
49503;DHT22;35409;48.776;9.204;2022-12-05T11:17:02;7.60;99.90
49503;DHT22;35409;48.776;9.204;2022-12-05T11:19:34;7.60;99.90
49503;DHT22;35409;48.776;9.204;2022-12-05T11:22:01;7.50;99.90
49503;DHT22;35409;48.776;9.204;2022-12-05T11:24:29;7.50;99.90
49503;DHT22;35409;48.776;9.204;2022-12-05T11:29:43;7.30;99.90
49503;DHT22;35409;48.776;9.204;2022-12-05T11:32:32;7.30;99.90
49503;DHT22;35409;48.776;9.204;2022-12-05T11:35:02;7.40;99.90
49503;DHT22;35409;48.776;9.204;2022-12-05T11:37:36;7.50;99.90
49503;DHT22;35409;48.776;9.204;2022-12-05T11:40:13;7.60;99.90
49503;DHT22;35409;48.776;9.204;2022-12-05T11:45:26;7.70;99.90
49503;DHT22;35409;48.776;9.204;2022-12-05T11:51:10;8.00;99.90
49503;DHT22;35409;48.776;9.204;2022-12-05T11:54:08;8.10;99.90
49503;DHT22;35409;48.776;9.204;2022-12-05T12:04:46;8.70;99.90
49503;DHT22;35409;48.776;9.204;2022-12-05T12:12:33;8.60;99.90
49503;DHT22;35409;48.776;9.204;2022-12-05T12:18:07;8.60;99.90
49503;DHT22;35409;48.776;9.204;2022-12-05T12:28:45;8.30;99.90
49503;DHT22;35409;48.776;9.204;2022-12-05T12:37:16;7.80;99.90
49503;DHT22;35409;48.776;9.204;2022-12-05T12:40:33;7.70;99.90
49503;DHT22;35409;48.776;9.204;2022-12-05T12:46:03;7.70;99.90
49503;DHT22;35409;48.776;9.204;2022-12-05T12:48:23;7.60;99.90
49503;DHT22;35409;48.776;9.204;2022-12-05T12:50:52;7.60;99.90
49503;DHT22;35409;48.776;9.204;2022-12-05T13:06:28;7.50;99.90
49503;DHT22;35409;48.776;9.204;2022-12-05T13:09:03;7.40;99.90
49503;DHT22;35409;48.776;9.204;2022-12-05T13:11:37;7.30;99.90
49503;DHT22;35409;48.776;9.204;2022-12-05T13:14:12;7.10;99.90
49503;DHT22;35409;48.776;9.204;2022-12-05T13:16:42;7.10;99.90
49503;DHT22;35409;48.776;9.204;2022-12-05T13:19:30;7.00;99.90
49503;DHT22;35409;48.776;9.204;2022-12-05T13:22:03;7.00;99.90
49503;DHT22;35409;48.776;9.204;2022-12-05T13:24:30;7.00;99.90
49503;DHT22;35409;48.776;9.204;2022-12-05T13:27:04;7.00;99.90
49503;DHT22;35409;48.776;9.204;2022-12-05T13:29:33;7.00;99.90
49503;DHT22;35409;48.776;9.204;2022-12-05T13:32:01;6.90;99.90
49503;DHT22;35409;48.776;9.204;2022-12-05T13:37:09;6.90;99.90
49503;DHT22;35409;48.776;9.204;2022-12-05T13:39:55;6.80;99.90
49503;DHT22;35409;48.776;9.204;2022-12-05T13:42:41;6.80;99.90
49503;DHT22;35409;48.776;9.204;2022-12-05T13:45:09;6.60;99.90
49503;DHT22;35409;48.776;9.204;2022-12-05T13:53:35;6.30;99.90
49503;DHT22;35409;48.776;9.204;2022-12-05T14:03:59;6.20;99.90
49503;DHT22;35409;48.776;9.204;2022-12-05T14:09:47;6.30;99.90
49503;DHT22;35409;48.776;9.204;2022-12-05T14:17:42;6.10;99.90
49503;DHT22;35409;48.776;9.204;2022-12-05T14:25:47;6.20;99.90
49503;DHT22;35409;48.776;9.204;2022-12-05T14:34:30;6.00;99.90
49503;DHT22;35409;48.776;9.204;2022-12-05T14:37:03;6.00;99.90
49503;DHT22;35409;48.776;9.204;2022-12-05T14:39:37;6.00;99.90
49503;DHT22;35409;48.776;9.204;2022-12-05T14:42:25;6.00;99.90
49503;DHT22;35409;48.776;9.204;2022-12-05T14:44:56;5.90;99.90
49503;DHT22;35409;48.776;9.204;2022-12-05T14:47:29;5.90;99.90
49503;DHT22;35409;48.776;9.204;2022-12-05T14:50:22;5.90;99.90
49503;DHT22;35409;48.776;9.204;2022-12-05T14:55:44;5.90;99.90
49503;DHT22;35409;48.776;9.204;2022-12-05T14:58:17;5.80;99.90
49503;DHT22;35409;48.776;9.204;2022-12-05T15:00:45;5.70;99.90
49503;DHT22;35409;48.776;9.204;2022-12-05T15:03:24;5.70;99.90
49503;DHT22;35409;48.776;9.204;2022-12-05T15:05:52;5.60;99.90
49503;DHT22;35409;48.776;9.204;2022-12-05T15:08:18;5.60;99.90
49503;DHT22;35409;48.776;9.204;2022-12-05T15:10:44;5.60;99.90
49503;DHT22;35409;48.776;9.204;2022-12-05T15:13:17;5.60;99.90
49503;DHT22;35409;48.776;9.204;2022-12-05T15:15:46;5.50;99.90
49503;DHT22;35409;48.776;9.204;2022-12-05T15:18:21;5.60;99.90
49503;DHT22;35409;48.776;9.204;2022-12-05T15:20:56;5.60;99.90
49503;DHT22;35409;48.776;9.204;2022-12-05T15:26:29;5.50;99.90
49503;DHT22;35409;48.776;9.204;2022-12-05T15:37:16;4.90;99.90
49503;DHT22;35409;48.776;9.204;2022-12-05T15:39:59;4.80;99.90
49503;DHT22;35409;48.776;9.204;2022-12-05T15:42:34;4.80;99.90
49503;DHT22;35409;48.776;9.204;2022-12-05T15:47:50;4.70;99.90
49503;DHT22;35409;48.776;9.204;2022-12-05T15:50:39;4.60;99.90
49503;DHT22;35409;48.776;9.204;2022-12-05T15:53:09;4.60;99.90
49503;DHT22;35409;48.776;9.204;2022-12-05T15:55:42;4.60;99.90
49503;DHT22;35409;48.776;9.204;2022-12-05T15:58:23;4.50;99.90
49503;DHT22;35409;48.776;9.204;2022-12-05T16:00:53;4.30;99.90
49503;DHT22;35409;48.776;9.204;2022-12-05T16:03:42;4.20;99.90
49503;DHT22;35409;48.776;9.204;2022-12-05T16:06:21;4.10;99.90
49503;DHT22;35409;48.776;9.204;2022-12-05T16:08:48;4.10;99.90
49503;DHT22;35409;48.776;9.204;2022-12-05T16:11:15;4.10;99.90
49503;DHT22;35409;48.776;9.204;2022-12-05T16:13:46;4.10;99.90
49503;DHT22;35409;48.776;9.204;2022-12-05T16:16:16;4.10;99.90
49503;DHT22;35409;48.776;9.204;2022-12-05T16:18:54;4.10;99.90
49503;DHT22;35409;48.776;9.204;2022-12-05T16:21:37;4.10;99.90
49503;DHT22;35409;48.776;9.204;2022-12-05T16:24:16;4.10;99.90
49503;DHT22;35409;48.776;9.204;2022-12-05T16:26:43;4.10;99.90
49503;DHT22;35409;48.776;9.204;2022-12-05T16:29:31;4.10;99.90
49503;DHT22;35409;48.776;9.204;2022-12-05T16:32:02;4.00;99.90
49503;DHT22;35409;48.776;9.204;2022-12-05T16:34:31;4.10;99.90
49503;DHT22;35409;48.776;9.204;2022-12-05T16:36:57;4.10;99.90
49503;DHT22;35409;48.776;9.204;2022-12-05T16:39:27;4.10;99.90
49503;DHT22;35409;48.776;9.204;2022-12-05T16:41:53;4.10;99.90
49503;DHT22;35409;48.776;9.204;2022-12-05T16:47:23;4.10;99.90
49503;DHT22;35409;48.776;9.204;2022-12-05T16:49:49;4.10;99.90
49503;DHT22;35409;48.776;9.204;2022-12-05T16:52:15;4.10;99.90
49503;DHT22;35409;48.776;9.204;2022-12-05T16:54:42;4.10;99.90
49503;DHT22;35409;48.776;9.204;2022-12-05T16:57:12;4.10;99.90
49503;DHT22;35409;48.776;9.204;2022-12-05T16:59:39;4.00;99.90
49503;DHT22;35409;48.776;9.204;2022-12-05T17:02:18;4.00;99.90
49503;DHT22;35409;48.776;9.204;2022-12-05T17:04:44;4.00;99.90
49503;DHT22;35409;48.776;9.204;2022-12-05T17:07:11;4.10;99.90
49503;DHT22;35409;48.776;9.204;2022-12-05T17:09:36;4.10;99.90
49503;DHT22;35409;48.776;9.204;2022-12-05T17:12:09;4.10;99.90
49503;DHT22;35409;48.776;9.204;2022-12-05T17:14:35;4.10;99.90
49503;DHT22;35409;48.776;9.204;2022-12-05T17:17:01;4.10;99.90
49503;DHT22;35409;48.776;9.204;2022-12-05T17:19:27;4.00;99.90
49503;DHT22;35409;48.776;9.204;2022-12-05T17:21:53;4.10;99.90
49503;DHT22;35409;48.776;9.204;2022-12-05T17:24:19;4.10;99.90
49503;DHT22;35409;48.776;9.204;2022-12-05T17:26:45;4.10;99.90
49503;DHT22;35409;48.776;9.204;2022-12-05T17:29:11;4.10;99.90
49503;DHT22;35409;48.776;9.204;2022-12-05T17:31:37;4.10;99.90
49503;DHT22;35409;48.776;9.204;2022-12-05T17:34:11;4.10;99.90
49503;DHT22;35409;48.776;9.204;2022-12-05T17:36:37;4.10;99.90
49503;DHT22;35409;48.776;9.204;2022-12-05T17:39:03;4.10;99.90
49503;DHT22;35409;48.776;9.204;2022-12-05T17:41:28;4.10;99.90
49503;DHT22;35409;48.776;9.204;2022-12-05T17:43:54;4.00;99.90
49503;DHT22;35409;48.776;9.204;2022-12-05T17:46:21;4.10;99.90
49503;DHT22;35409;48.776;9.204;2022-12-05T17:48:48;4.10;99.90
49503;DHT22;35409;48.776;9.204;2022-12-05T17:51:14;4.10;99.90
49503;DHT22;35409;48.776;9.204;2022-12-05T17:53:41;4.10;99.90
49503;DHT22;35409;48.776;9.204;2022-12-05T17:56:08;4.10;99.90
49503;DHT22;35409;48.776;9.204;2022-12-05T17:58:34;4.10;99.90
49503;DHT22;35409;48.776;9.204;2022-12-05T18:01:00;4.10;99.90
49503;DHT22;35409;48.776;9.204;2022-12-05T18:03:27;4.00;99.90
49503;DHT22;35409;48.776;9.204;2022-12-05T18:05:53;4.10;99.90
49503;DHT22;35409;48.776;9.204;2022-12-05T18:08:18;4.00;99.90
49503;DHT22;35409;48.776;9.204;2022-12-05T18:10:46;4.00;99.90
49503;DHT22;35409;48.776;9.204;2022-12-05T18:13:13;4.00;99.90
49503;DHT22;35409;48.776;9.204;2022-12-05T18:15:39;4.00;99.90
49503;DHT22;35409;48.776;9.204;2022-12-05T18:18:05;4.00;99.90
49503;DHT22;35409;48.776;9.204;2022-12-05T18:20:33;3.90;99.90
49503;DHT22;35409;48.776;9.204;2022-12-05T18:22:59;3.90;99.90
49503;DHT22;35409;48.776;9.204;2022-12-05T18:25:26;3.90;99.90
49503;DHT22;35409;48.776;9.204;2022-12-05T18:27:51;3.90;99.90
49503;DHT22;35409;48.776;9.204;2022-12-05T18:30:17;3.90;99.90
49503;DHT22;35409;48.776;9.204;2022-12-05T18:32:43;3.90;99.90
49503;DHT22;35409;48.776;9.204;2022-12-05T18:35:09;3.80;99.90
49503;DHT22;35409;48.776;9.204;2022-12-05T18:37:36;3.70;99.90
49503;DHT22;35409;48.776;9.204;2022-12-05T18:40:06;3.70;99.90
49503;DHT22;35409;48.776;9.204;2022-12-05T18:42:32;3.70;99.90
49503;DHT22;35409;48.776;9.204;2022-12-05T18:44:57;3.60;99.90
49503;DHT22;35409;48.776;9.204;2022-12-05T18:47:23;3.60;99.90
49503;DHT22;35409;48.776;9.204;2022-12-05T18:49:49;3.60;99.90
49503;DHT22;35409;48.776;9.204;2022-12-05T18:52:15;3.50;99.90
49503;DHT22;35409;48.776;9.204;2022-12-05T18:54:41;3.50;99.90
49503;DHT22;35409;48.776;9.204;2022-12-05T18:57:07;3.50;99.90
49503;DHT22;35409;48.776;9.204;2022-12-05T18:59:33;3.50;99.90
49503;DHT22;35409;48.776;9.204;2022-12-05T19:01:59;3.40;99.90
49503;DHT22;35409;48.776;9.204;2022-12-05T19:04:25;3.40;99.90
49503;DHT22;35409;48.776;9.204;2022-12-05T19:06:53;3.40;99.90
49503;DHT22;35409;48.776;9.204;2022-12-05T19:09:22;3.40;99.90
49503;DHT22;35409;48.776;9.204;2022-12-05T19:11:50;3.40;99.90
49503;DHT22;35409;48.776;9.204;2022-12-05T19:14:17;3.40;99.90
49503;DHT22;35409;48.776;9.204;2022-12-05T19:16:44;3.40;99.90
49503;DHT22;35409;48.776;9.204;2022-12-05T19:19:13;3.40;99.90
49503;DHT22;35409;48.776;9.204;2022-12-05T19:21:39;3.40;99.90
49503;DHT22;35409;48.776;9.204;2022-12-05T19:24:06;3.50;99.90
49503;DHT22;35409;48.776;9.204;2022-12-05T19:26:33;3.50;99.90
49503;DHT22;35409;48.776;9.204;2022-12-05T19:28:59;3.50;99.90
49503;DHT22;35409;48.776;9.204;2022-12-05T19:31:27;3.40;99.90
49503;DHT22;35409;48.776;9.204;2022-12-05T19:33:57;3.50;99.90
49503;DHT22;35409;48.776;9.204;2022-12-05T19:36:28;3.50;99.90
49503;DHT22;35409;48.776;9.204;2022-12-05T19:38:54;3.60;99.90
49503;DHT22;35409;48.776;9.204;2022-12-05T19:41:23;3.60;99.90
49503;DHT22;35409;48.776;9.204;2022-12-05T19:43:49;3.60;99.90
49503;DHT22;35409;48.776;9.204;2022-12-05T19:46:17;3.60;99.90
49503;DHT22;35409;48.776;9.204;2022-12-05T19:48:46;3.60;99.90
49503;DHT22;35409;48.776;9.204;2022-12-05T19:51:12;3.60;99.90
49503;DHT22;35409;48.776;9.204;2022-12-05T19:53:40;3.60;99.90
49503;DHT22;35409;48.776;9.204;2022-12-05T19:56:18;3.60;99.90
49503;DHT22;35409;48.776;9.204;2022-12-05T19:58:44;3.60;99.90
49503;DHT22;35409;48.776;9.204;2022-12-05T20:04:04;3.60;99.90
49503;DHT22;35409;48.776;9.204;2022-12-05T20:06:32;3.60;99.90
49503;DHT22;35409;48.776;9.204;2022-12-05T20:08:58;3.70;99.90
49503;DHT22;35409;48.776;9.204;2022-12-05T20:11:25;3.70;99.90
49503;DHT22;35409;48.776;9.204;2022-12-05T20:13:53;3.70;99.90
49503;DHT22;35409;48.776;9.204;2022-12-05T20:16:21;3.70;99.90
49503;DHT22;35409;48.776;9.204;2022-12-05T20:18:47;3.70;99.90
49503;DHT22;35409;48.776;9.204;2022-12-05T20:21:16;3.70;99.90
49503;DHT22;35409;48.776;9.204;2022-12-05T20:23:42;3.80;99.90